Airport View

Enter AWOS ICAO identifier for current METAR.

ex. KFNL

CYYD 261200Z AUTO 08002KT 9SM FEW070 08/08 A2996 RMK SLP150

26 Jun 2019 12:16

Other Area AWOS: CWPZ - CYXT - CZST

TAF CYYD 260038Z 2601/2606 34005KT P6SM FEW060 SCT120 TEMPO 2601/2603 P6SM -SHRA VCTS FEW025 BKN060CB RMK NXT FCST WILL BE ISSUED AT 261345Z